Amsterdam, Netherlands

8:43 AM CEST on August 05, 2015 (GMT +0200)
Aalsmeerderbrug | | Change Station
CLOSE
Current Station
Personal Weather Station
Location: Aalsmeerderbrug, NOORD-HOLLAND
Elevation: -3 ft
Nearby Weather Stations

Elev -3 ft 52.27 °N, 4.75 °E | Updated 13 minutes ago

Overcast
Overcast
61.3 °F
Feels Like 61.3 °F
N
0.0
Wind Variable Wind from SSE
Gusts 3.1 mph

Today
High -- | Low -- °F
--% Chance of Precip.
Yesterday
High -- | Low -- °F
Precip. -- in
6:07 AM 9:25 PM
Waning Gibbous, 70% visible
Pressure 30.01 in
Visibility 6.2 miles
Clouds Few 2000 ft
Overcast 11000 ft
Dew Point 55 °F
Humidity 80%
Rainfall 0.00 in
Snow Depth Not available.
UV 0 out of 12
Pollen Not available.
Air Quality Not available.
Flu Activity Not available.
SPECI EHKD 050636Z AUTO 22011KT 9999 FEW020 OVC110 17/13 Q1016 BLU 22011KT 9999 FEW030 SCT025

More Conditions Fewer Conditions

Pressure 30.01 in
Visibility 6.2 miles
Clouds Few 2000 ft
Overcast 11000 ft
Dew Point 55 °F
Humidity 80%
Rainfall 0.00 in
Snow Depth Not available.
UV 0 out of 12
Pollen Not available.
Air Quality Not available.
Flu Activity Not available.
SPECI EHKD 050636Z AUTO 22011KT 9999 FEW020 OVC110 17/13 Q1016 BLU 22011KT 9999 FEW030 SCT025

More Conditions Fewer Conditions

10-Day Weather Forecast

×

Almanac

Astronomy

Aug. 05, 2015 Rise Set
Actual Time
Civil Twilight
Nautical Twilight
Astronomical Twilight
Moon
Length of Visible Light
Length of Day
Tomorrow will be .
, % of the Moon is Illuminated

Today's Extremes

Country Highs Country Lows

Community

WunderPhotos

Upload Photos

1,844,105 photos uploaded!

WunderBlogs® & News

Nearby

Air Quality

  Air Quality AQ Index Pollutant
Not available.

Snow Depth

Station Depth Elevation

Earthquake Activity

City Distance Mag. Time & Date
Minimum magnitude displayed is 2.5.

Coastal Water Temperatures

Place Temperature

Stations

Nearby Weather Stations

Station Location Temp. Windchill Dew Point Humidity Wind Precip. Elev Updated Type